Time;durP1;ratioP1;P1;durP2;ratioP2;P2;SDS_P1;SDS_P2;PMS_P1;PMS_P2;Temp;Humidity;BMP_temperature;BMP_pressure;BME280_temperature;BME280_humidity;BME280_pressure;Samples;Min_cycle;Max_cycle;Signal;HPM_P1;HPM_P2
2021/04/18 00:01:09;;;;;;;6.45;2.85;;;;;;;9.74;43.19;100463.66;5053638;28;20053;-87
2021/04/18 00:03:35;;;;;;;6.63;3.38;;;;;;;9.72;43.25;100459.38;5093767;22;20073;-84
2021/04/18 00:06:02;;;;;;;7.22;3.70;;;;;;;9.68;43.62;100456.00;5036013;28;20390;-84
2021/04/18 00:08:28;;;;;;;6.95;3.20;;;;;;;9.65;43.68;100464.03;5053415;28;20063;-85
2021/04/18 00:10:54;;;;;;;9.50;2.80;;;;;;;9.62;43.73;100461.53;5035770;28;20056;-84
2021/04/18 00:13:20;;;;;;;6.95;3.17;;;;;;;9.60;43.84;100458.97;5053375;28;20111;-85
2021/04/18 00:15:46;;;;;;;7.90;3.58;;;;;;;9.57;43.70;100456.47;5035673;28;20057;-85
2021/04/18 00:18:14;;;;;;;9.27;3.60;;;;;;;9.55;43.97;100462.69;5053414;28;20049;-84
2021/04/18 00:20:41;;;;;;;6.80;3.58;;;;;;;9.52;44.33;100453.16;5035470;28;20052;-84
2021/04/18 00:23:07;;;;;;;6.55;3.70;;;;;;;9.48;44.20;100452.47;5053073;28;20493;-84
2021/04/18 00:25:34;;;;;;;4.93;3.25;;;;;;;9.46;44.09;100448.19;5035548;28;20136;-84
2021/04/18 00:28:01;;;;;;;4.97;3.00;;;;;;;9.44;44.15;100450.88;5053160;28;20084;-84
2021/04/18 00:30:27;;;;;;;4.78;3.08;;;;;;;9.43;44.38;100443.03;5053111;28;20558;-84
2021/04/18 00:32:59;;;;;;;7.82;3.47;;;;;;;9.41;44.48;100444.91;5053068;28;20132;-84
2021/04/18 00:35:25;;;;;;;4.63;2.92;;;;;;;9.41;44.61;100444.91;5053181;28;20084;-84
2021/04/18 00:37:51;;;;;;;7.07;3.28;;;;;;;9.41;44.84;100435.22;5053018;28;20056;-84
2021/04/18 00:40:21;;;;;;;6.28;3.25;;;;;;;9.41;45.09;100437.00;5053213;28;20103;-84
2021/04/18 00:42:48;;;;;;;6.88;3.78;;;;;;;9.41;44.77;100435.22;5053094;28;20413;-84
2021/04/18 00:45:15;;;;;;;5.63;3.20;;;;;;;9.43;44.84;100433.41;5052840;28;20052;-84
2021/04/18 00:47:44;;;;;;;6.60;3.33;;;;;;;9.42;45.11;100430.84;5036955;28;20059;-84
2021/04/18 00:50:12;;;;;;;8.02;2.90;;;;;;;9.44;45.09;100435.09;5039192;28;20060;-84
2021/04/18 00:52:39;;;;;;;6.53;2.97;;;;;;;9.45;44.79;100436.81;5056839;28;20060;-84
2021/04/18 00:55:07;;;;;;;5.32;3.30;;;;;;;9.44;44.97;100429.84;5056798;28;20056;-84
2021/04/18 00:57:33;;;;;;;8.43;3.72;;;;;;;9.43;44.98;100432.53;5039339;28;20052;-84
2021/04/18 01:00:00;;;;;;;8.75;3.22;;;;;;;9.41;45.00;100434.38;5056939;28;20052;-84
2021/04/18 01:02:27;;;;;;;6.30;3.20;;;;;;;9.37;45.14;100437.13;5056578;28;20053;-84
2021/04/18 01:04:53;;;;;;;7.40;3.20;;;;;;;9.36;45.24;100430.16;5056747;28;20095;-84
2021/04/18 01:07:20;;;;;;;13.65;3.40;;;;;;;9.34;45.06;100434.63;5039122;28;20049;-84
2021/04/18 01:09:46;;;;;;;9.45;3.53;;;;;;;9.33;45.17;100421.53;5038998;28;20048;-84
2021/04/18 01:12:13;;;;;;;5.38;3.30;;;;;;;9.32;45.27;100427.72;5056574;28;20045;-84
2021/04/18 01:14:40;;;;;;;7.47;3.42;;;;;;;9.29;45.51;100427.84;5038755;28;20461;-84
2021/04/18 01:17:06;;;;;;;6.68;4.00;;;;;;;9.27;45.64;100427.06;5038926;28;20056;-84
2021/04/18 01:19:33;;;;;;;8.90;4.13;;;;;;;9.25;45.46;100430.63;5056533;28;20053;-84
2021/04/18 01:21:59;;;;;;;5.97;3.20;;;;;;;9.24;45.90;100431.50;5056582;28;20106;-84
2021/04/18 01:24:26;;;;;;;5.82;3.10;;;;;;;9.23;45.71;100427.19;5056568;28;20053;-84
2021/04/18 01:26:52;;;;;;;7.15;4.03;;;;;;;9.23;46.03;100423.69;5057455;28;20056;-84
2021/04/18 01:29:18;;;;;;;6.47;3.78;;;;;;;9.22;46.17;100425.47;5057738;28;20053;-84
2021/04/18 01:31:45;;;;;;;6.50;3.67;;;;;;;9.23;46.43;100421.91;5057592;28;20052;-84
2021/04/18 01:34:12;;;;;;;11.85;4.35;;;;;;;9.25;46.32;100424.50;5057243;28;20053;-84
2021/04/18 01:36:42;;;;;;;9.40;3.50;;;;;;;9.27;46.75;100424.44;5057412;28;20057;-84
2021/04/18 01:39:09;;;;;;;7.80;4.03;;;;;;;9.29;46.52;100417.31;5057425;28;20486;-83
2021/04/18 01:41:35;;;;;;;11.48;4.20;;;;;;;9.32;46.50;100419.84;5057621;28;20048;-84
2021/04/18 01:44:04;;;;;;;8.20;4.18;;;;;;;9.32;46.72;100412.81;5039643;28;20111;-84
2021/04/18 01:46:31;;;;;;;5.55;3.75;;;;;;;9.36;46.68;100416.16;5039812;28;20060;-84
2021/04/18 01:48:57;;;;;;;8.07;4.03;;;;;;;9.37;46.91;100404.72;5056986;28;20131;-84
2021/04/18 01:51:25;;;;;;;7.50;4.05;;;;;;;9.37;46.66;100399.47;5057323;28;20057;-84
2021/04/18 01:53:51;;;;;;;8.40;4.18;;;;;;;9.39;47.05;100400.28;5056618;28;20401;-84
2021/04/18 01:56:18;;;;;;;10.85;4.15;;;;;;;9.43;47.16;100399.25;5040133;28;20052;-84
2021/04/18 01:58:44;;;;;;;8.43;3.90;;;;;;;9.46;47.03;100395.63;5056641;28;20057;-84
2021/04/18 02:01:11;;;;;;;7.97;3.90;;;;;;;9.48;47.30;100405.16;5057462;28;20057;-84
2021/04/18 02:03:37;;;;;;;9.25;4.43;;;;;;;9.51;47.25;100404.16;5056603;28;20067;-84
2021/04/18 02:06:04;;;;;;;7.18;3.83;;;;;;;9.53;47.04;100402.31;5056852;28;20457;-84
2021/04/18 02:08:30;;;;;;;10.15;4.00;;;;;;;9.55;47.32;100403.13;5037895;28;20053;-83
2021/04/18 02:10:57;;;;;;;10.55;4.30;;;;;;;9.56;46.90;100396.06;5037286;28;20060;-84
2021/04/18 02:13:23;;;;;;;8.38;4.15;;;;;;;9.57;47.17;100400.44;5038505;28;20386;-84
2021/04/18 02:15:49;;;;;;;7.82;4.38;;;;;;;9.57;47.15;100403.88;5056716;28;20048;-84
2021/04/18 02:18:15;;;;;;;13.07;3.85;;;;;;;9.57;47.10;100403.06;5039222;28;20049;-84
2021/04/18 02:20:41;;;;;;;10.73;4.50;;;;;;;9.57;47.05;100395.16;5056618;28;20084;-84
2021/04/18 02:23:07;;;;;;;8.40;4.20;;;;;;;9.58;47.14;100397.75;5038875;28;20045;-84
2021/04/18 02:25:33;;;;;;;6.28;4.20;;;;;;;9.57;47.05;100397.81;5056332;28;20493;-84
2021/04/18 02:28:00;;;;;;;8.27;4.47;;;;;;;9.56;47.30;100399.56;5038707;28;20075;-84
2021/04/18 02:30:26;;;;;;;7.72;4.72;;;;;;;9.55;47.16;100407.50;5039387;28;20056;-84
2021/04/18 02:32:52;;;;;;;9.13;4.30;;;;;;;9.52;47.21;100400.59;5056431;28;20064;-84
2021/04/18 02:35:18;;;;;;;11.35;4.60;;;;;;;9.50;47.37;100403.31;5056135;28;20076;-84
2021/04/18 02:37:45;;;;;;;8.75;4.65;;;;;;;9.47;47.24;100402.59;5056476;28;20059;-83
2021/04/18 02:40:12;;;;;;;8.77;4.43;;;;;;;9.43;47.53;100409.75;5057065;28;20095;-84
2021/04/18 02:42:40;;;;;;;9.00;4.60;;;;;;;9.39;47.46;100416.88;5056370;28;20060;-84
2021/04/18 02:45:10;;;;;;;13.15;5.00;;;;;;;9.33;48.34;100413.66;5038678;28;20048;-84
2021/04/18 02:47:36;;;;;;;8.75;4.30;;;;;;;9.29;47.53;100415.56;5056481;28;20048;-84
2021/04/18 02:50:08;;;;;;;9.20;4.75;;;;;;;9.22;48.75;100414.09;5056311;28;20471;-84
2021/04/18 02:52:34;;;;;;;9.93;4.22;;;;;;;9.19;48.13;100415.09;5055836;28;20049;-84
2021/04/18 02:55:01;;;;;;;10.10;4.82;;;;;;;9.16;47.92;100414.38;5055272;28;20060;-84
2021/04/18 02:57:27;;;;;;;6.18;4.10;;;;;;;9.13;48.30;100410.09;5055778;28;20110;-84
2021/04/18 02:59:53;;;;;;;7.40;3.97;;;;;;;9.10;48.24;100411.06;5055928;28;20057;-84
2021/04/18 03:02:19;;;;;;;10.02;5.22;;;;;;;9.09;48.20;100411.97;5055768;28;20049;-84
2021/04/18 03:04:47;;;;;;;7.32;4.50;;;;;;;9.06;48.31;100409.50;5055538;28;20040;-84
2021/04/18 03:07:13;;;;;;;7.68;4.03;;;;;;;9.05;48.30;100402.50;5055440;28;20053;-84
2021/04/18 03:09:39;;;;;;;9.35;4.32;;;;;;;9.03;48.50;100403.47;5037217;28;20049;-84
2021/04/18 03:12:06;;;;;;;6.75;4.00;;;;;;;9.01;48.01;100410.59;5038274;28;20049;-84
2021/04/18 03:14:32;;;;;;;8.18;4.43;;;;;;;8.99;48.20;100397.50;5055419;28;20044;-84
2021/04/18 03:16:58;;;;;;;12.02;5.03;;;;;;;8.97;48.28;100397.56;5055555;28;20048;-84
2021/04/18 03:19:24;;;;;;;10.25;4.68;;;;;;;8.94;48.62;100394.22;5037428;28;20052;-84
2021/04/18 03:21:50;;;;;;;10.02;4.78;;;;;;;8.92;48.62;100396.91;5055093;28;20132;-84
2021/04/18 03:24:16;;;;;;;9.50;4.32;;;;;;;8.92;48.74;100390.78;5037227;28;20048;-84
2021/04/18 03:26:43;;;;;;;7.72;3.78;;;;;;;8.90;48.55;100390.00;5037998;28;20053;-84
2021/04/18 03:29:09;;;;;;;8.32;4.20;;;;;;;8.88;48.44;100392.69;5055121;28;20060;-84
2021/04/18 03:31:35;;;;;;;8.98;4.35;;;;;;;8.86;48.80;100390.13;5055535;28;20053;-84
2021/04/18 03:34:01;;;;;;;9.00;4.70;;;;;;;8.84;48.61;100391.97;5037205;28;20053;-84
2021/04/18 03:36:27;;;;;;;11.20;4.95;;;;;;;8.81;48.65;100391.22;5055020;28;20418;-84
2021/04/18 03:38:53;;;;;;;7.90;4.50;;;;;;;8.79;49.11;100388.63;5055120;28;20053;-84
2021/04/18 03:41:19;;;;;;;8.95;4.70;;;;;;;8.77;48.89;100387.00;5055353;28;20494;-84
2021/04/18 03:43:46;;;;;;;7.80;4.80;;;;;;;8.73;48.84;100381.88;5055024;28;20049;-84
2021/04/18 03:46:12;;;;;;;7.78;4.90;;;;;;;8.71;49.18;100381.06;5037378;28;20056;-84
2021/04/18 03:48:38;;;;;;;11.38;5.13;;;;;;;8.70;49.24;100382.00;5054987;28;20501;-84
2021/04/18 03:51:04;;;;;;;8.93;4.55;;;;;;;8.67;49.21;100376.84;5054867;28;20052;-85
2021/04/18 03:53:30;;;;;;;10.73;5.03;;;;;;;8.66;49.31;100372.53;5055238;28;20512;-84
2021/04/18 03:55:58;;;;;;;9.85;4.68;;;;;;;8.64;48.89;100377.00;5054588;28;20386;-84
2021/04/18 03:58:24;;;;;;;9.88;4.43;;;;;;;8.60;49.07;100365.75;5054702;28;20059;-84
2021/04/18 04:00:50;;;;;;;7.93;4.60;;;;;;;8.56;48.92;100368.56;5037174;28;20110;-84
2021/04/18 04:03:16;;;;;;;11.15;5.57;;;;;;;8.50;49.36;100374.88;5036876;28;20124;-84
2021/04/18 04:05:42;;;;;;;12.20;5.10;;;;;;;8.44;49.25;100377.72;5054644;28;20045;-84
2021/04/18 04:08:08;;;;;;;8.80;4.90;;;;;;;8.40;49.43;100381.34;5054548;28;20045;-84
2021/04/18 04:10:34;;;;;;;7.38;4.45;;;;;;;8.36;49.52;100375.38;5054503;28;20049;-84
2021/04/18 04:13:01;;;;;;;10.02;5.47;;;;;;;8.32;49.98;100379.03;5036646;28;20402;-84
2021/04/18 04:15:27;;;;;;;14.73;6.47;;;;;;;8.29;49.92;100372.13;5054329;28;20478;-84
2021/04/18 04:17:53;;;;;;;9.93;5.72;;;;;;;8.30;50.28;100367.75;5054347;28;20056;-84
2021/04/18 04:20:19;;;;;;;12.63;5.93;;;;;;;8.31;50.75;100365.09;5036591;28;20075;-83
2021/04/18 04:22:45;;;;;;;11.75;5.32;;;;;;;8.34;50.48;100364.94;5053865;28;20493;-84
2021/04/18 04:25:12;;;;;;;12.60;5.35;;;;;;;8.37;50.64;100363.97;5036737;28;20048;-84
2021/04/18 04:27:39;;;;;;;10.43;5.95;;;;;;;8.42;51.26;100374.31;5036596;28;20456;-84
2021/04/18 04:30:06;;;;;;;11.77;6.18;;;;;;;8.45;50.81;100380.28;5036909;28;20044;-84
2021/04/18 04:32:32;;;;;;;13.77;6.13;;;;;;;8.48;51.00;100374.91;5036592;28;20046;-84
2021/04/18 04:34:59;;;;;;;10.50;5.68;;;;;;;8.51;51.02;100373.94;5036196;28;20045;-84
2021/04/18 04:37:25;;;;;;;15.85;6.20;;;;;;;8.55;50.86;100382.56;5054280;28;20106;-84
2021/04/18 04:39:51;;;;;;;16.38;6.20;;;;;;;8.59;50.92;100384.16;5054123;28;20472;-84
2021/04/18 04:42:17;;;;;;;11.75;6.43;;;;;;;8.61;51.14;100384.97;5036734;28;20454;-84
2021/04/18 04:44:43;;;;;;;12.88;6.00;;;;;;;8.63;50.90;100396.25;5054347;28;20049;-84
2021/04/18 04:47:09;;;;;;;14.15;6.53;;;;;;;8.63;51.16;100396.25;5054577;28;20048;-84
2021/04/18 04:49:35;;;;;;;12.43;7.47;;;;;;;8.64;51.08;100395.38;5054170;28;20053;-83
2021/04/18 04:52:02;;;;;;;11.32;6.32;;;;;;;8.63;50.96;100390.19;5036198;28;20049;-84
2021/04/18 04:54:28;;;;;;;12.30;6.35;;;;;;;8.62;50.90;100396.31;5053996;28;20072;-84
2021/04/18 04:56:54;;;;;;;12.43;6.47;;;;;;;8.60;50.89;100402.47;5054335;28;20106;-84
2021/04/18 04:59:20;;;;;;;15.35;6.20;;;;;;;8.58;50.91;100400.84;5036786;28;20056;-83
2021/04/18 05:01:46;;;;;;;12.75;5.63;;;;;;;8.56;51.00;100405.31;5054082;28;20057;-84
2021/04/18 05:04:12;;;;;;;11.40;6.22;;;;;;;8.54;50.94;100407.13;5053419;28;20056;-84
2021/04/18 05:06:38;;;;;;;14.80;6.63;;;;;;;8.52;51.45;100401.06;5054010;28;20110;-83
2021/04/18 05:09:05;;;;;;;15.40;6.43;;;;;;;8.51;51.57;100401.94;5054030;28;20045;-82
2021/04/18 05:11:31;;;;;;;11.75;6.47;;;;;;;8.50;51.54;100401.09;5036335;28;20052;-84
2021/04/18 05:13:57;;;;;;;12.40;6.10;;;;;;;8.51;51.74;100410.69;5053587;28;20084;-83
2021/04/18 05:16:24;;;;;;;10.73;6.22;;;;;;;8.52;51.73;100419.41;5053155;28;20049;-84
2021/04/18 05:18:50;;;;;;;14.02;6.00;;;;;;;8.53;51.56;100419.41;5052825;28;20099;-84
2021/04/18 05:21:16;;;;;;;14.00;6.85;;;;;;;8.53;52.09;100419.41;5052947;28;20115;-84
2021/04/18 05:23:42;;;;;;;14.40;6.55;;;;;;;8.54;52.04;100421.09;5052505;28;20048;-82
2021/04/18 05:26:08;;;;;;;10.88;6.75;;;;;;;8.56;52.06;100427.13;5052808;28;20095;-84
2021/04/18 05:28:35;;;;;;;11.52;5.88;;;;;;;8.56;51.95;100419.25;5052785;28;20045;-85
2021/04/18 05:31:03;;;;;;;12.15;6.00;;;;;;;8.58;52.07;100421.84;5035081;28;20056;-84
2021/04/18 05:33:29;;;;;;;11.02;6.65;;;;;;;8.62;52.21;100425.19;5053781;28;20052;-84
2021/04/18 05:35:56;;;;;;;10.70;6.47;;;;;;;8.63;52.16;100424.28;5056142;28;20055;-84
2021/04/18 05:38:22;;;;;;;13.52;7.05;;;;;;;8.64;52.29;100423.38;5056318;28;20102;-84
2021/04/18 05:40:48;;;;;;;13.23;6.80;;;;;;;8.66;52.30;100422.41;5056128;28;20049;-85
2021/04/18 05:43:15;;;;;;;13.00;6.60;;;;;;;8.69;52.39;100417.03;5055938;28;20053;-84
2021/04/18 05:45:41;;;;;;;10.82;6.22;;;;;;;8.72;52.16;100416.06;5037973;28;20053;-85
2021/04/18 05:48:07;;;;;;;14.20;7.30;;;;;;;8.77;52.31;100418.50;5056103;28;20126;-85
2021/04/18 05:50:34;;;;;;;14.07;5.85;;;;;;;8.80;52.66;100413.13;5038168;28;20429;-85
2021/04/18 05:53:00;;;;;;;11.10;6.35;;;;;;;8.86;52.87;100412.91;5055829;28;20123;-84
2021/04/18 05:55:27;;;;;;;12.38;6.53;;;;;;;8.90;52.47;100413.63;5037943;28;20052;-85
2021/04/18 05:57:53;;;;;;;10.80;6.15;;;;;;;8.96;52.71;100414.25;5038257;28;20131;-85
2021/04/18 06:00:20;;;;;;;12.48;6.80;;;;;;;9.00;52.74;100409.72;5055814;28;20056;-84
2021/04/18 06:02:47;;;;;;;10.48;6.60;;;;;;;9.07;52.61;100415.56;5096875;22;20060;-84
2021/04/18 06:05:15;;;;;;;14.63;6.55;;;;;;;9.12;52.84;100411.84;5035641;28;20508;-83
2021/04/18 06:07:41;;;;;;;9.27;5.93;;;;;;;9.19;52.57;100409.84;5035998;28;20474;-83
2021/04/18 06:10:09;;;;;;;13.52;6.20;;;;;;;9.24;52.94;100402.59;5018027;28;20054;-83
2021/04/18 06:12:35;;;;;;;12.80;6.15;;;;;;;9.29;52.58;100407.69;5035741;28;20049;-83
2021/04/18 06:15:01;;;;;;;15.85;6.40;;;;;;;9.33;52.48;100406.66;5017654;28;20146;-83
2021/04/18 06:17:27;;;;;;;12.43;6.20;;;;;;;9.38;52.54;100401.19;5035387;28;20115;-83
2021/04/18 06:19:53;;;;;;;12.73;5.50;;;;;;;9.43;52.67;100396.63;5017950;28;20540;-83
2021/04/18 06:22:19;;;;;;;10.10;5.75;;;;;;;9.48;52.18;100399.03;5035618;28;20045;-83
2021/04/18 06:24:45;;;;;;;11.93;6.25;;;;;;;9.50;52.16;100403.31;5035161;28;20103;-83
2021/04/18 06:27:11;;;;;;;13.02;6.25;;;;;;;9.56;52.39;100396.94;5017872;28;20065;-83
2021/04/18 06:29:37;;;;;;;13.57;6.68;;;;;;;9.62;52.42;100398.44;5035166;28;20045;-83
2021/04/18 06:32:06;;;;;;;9.77;6.80;;;;;;;9.66;52.75;100397.41;5035336;28;20053;-83
2021/04/18 06:34:33;;;;;;;10.13;6.70;;;;;;;9.74;52.37;100400.56;5017510;28;20128;-83
2021/04/18 06:36:59;;;;;;;13.80;6.78;;;;;;;9.81;52.35;100408.16;5035532;28;20417;-83
2021/04/18 06:39:25;;;;;;;11.90;6.43;;;;;;;9.86;52.17;100401.78;5035408;28;20107;-83
2021/04/18 06:41:54;;;;;;;10.68;6.25;;;;;;;9.91;52.62;100409.50;5035222;28;20091;-83
2021/04/18 06:44:21;;;;;;;9.55;6.32;;;;;;;9.99;52.26;100409.16;5016290;28;20045;-84
2021/04/18 06:46:52;;;;;;;11.73;6.38;;;;;;;10.04;52.24;100420.31;5017630;28;20060;-83
2021/04/18 06:49:18;;;;;;;16.23;6.45;;;;;;;10.12;52.12;100423.47;5034871;28;20053;-83
2021/04/18 06:51:45;;;;;;;10.68;5.97;;;;;;;10.19;52.27;100431.06;5035043;28;20045;-83
2021/04/18 06:54:12;;;;;;;12.73;6.28;;;;;;;10.23;52.19;100412.47;5016893;28;20057;-83
2021/04/18 06:56:38;;;;;;;12.38;5.97;;;;;;;10.29;52.16;100413.97;5034719;28;20425;-83
2021/04/18 06:59:05;;;;;;;10.52;5.55;;;;;;;10.35;52.02;100402.31;5034975;28;20053;-83
2021/04/18 07:01:31;;;;;;;10.48;6.00;;;;;;;10.41;52.10;100386.22;5034799;28;20449;-85
2021/04/18 07:04:07;;;;;;;13.02;6.38;;;;;;;10.46;52.38;100391.31;5034787;28;20053;-84
2021/04/18 07:06:41;;;;;;;10.98;5.53;;;;;;;10.55;52.09;100391.72;5035650;28;20076;-84
2021/04/18 07:09:07;;;;;;;10.95;6.38;;;;;;;10.67;51.90;100389.44;5033862;28;20057;-84
2021/04/18 07:11:51;;;;;;;11.48;5.75;;;;;;;10.74;52.05;100397.91;5016265;28;20053;-84
2021/04/18 07:14:31;;;;;;;11.73;6.00;;;;;;;10.85;52.00;100390.38;5033357;28;20054;-84
2021/04/18 07:17:08;;;;;;;10.57;6.55;;;;;;;10.97;51.61;100388.03;5015873;28;20053;-84
2021/04/18 07:19:37;;;;;;;11.30;6.07;;;;;;;11.08;51.39;100394.53;5016044;28;20556;-84
2021/04/18 07:22:04;;;;;;;11.32;6.30;;;;;;;11.16;51.22;100407.31;5033650;28;20085;-84
2021/04/18 07:24:31;;;;;;;12.45;6.70;;;;;;;11.22;51.14;100400.91;5015434;28;20096;-84
2021/04/18 07:27:03;;;;;;;10.35;6.60;;;;;;;11.26;51.01;100402.44;5033450;28;20068;-83
2021/04/18 07:29:33;;;;;;;10.02;5.90;;;;;;;11.31;50.83;100410.97;5015923;28;20046;-83
2021/04/18 07:32:15;;;;;;;12.20;6.40;;;;;;;11.34;50.93;100404.69;5033351;28;20045;-83
2021/04/18 07:34:41;;;;;;;16.50;6.57;;;;;;;11.38;50.72;100398.34;5033143;28;20414;-83
2021/04/18 07:37:11;;;;;;;11.52;6.65;;;;;;;11.40;51.02;100390.38;5033373;28;20060;-83
2021/04/18 07:39:45;;;;;;;12.45;7.32;;;;;;;11.41;51.37;100389.44;5033399;28;20502;-83
2021/04/18 07:42:29;;;;;;;11.15;6.00;;;;;;;11.45;51.30;100399.72;5033367;28;20517;-84
2021/04/18 07:44:56;;;;;;;;;;;;;;;11.53;50.46;100394.09;5015590;28;20482;-84
2021/04/18 07:47:24;;;;;;;10.20;6.25;;;;;;;11.60;50.77;100392.81;5033304;28;19975;-83
2021/04/18 07:49:52;;;;;;;11.52;6.55;;;;;;;11.62;50.85;100394.53;5015646;28;20053;-84
2021/04/18 07:52:19;;;;;;;12.43;6.95;;;;;;;11.65;50.62;100391.72;5015769;28;20520;-83
2021/04/18 07:54:45;;;;;;;13.48;6.38;;;;;;;11.67;50.40;100400.44;5032494;28;20057;-83
2021/04/18 07:57:11;;;;;;;11.93;6.40;;;;;;;11.68;50.24;100396.84;5032774;28;20053;-83
2021/04/18 07:59:38;;;;;;;15.32;7.00;;;;;;;11.68;50.32;100391.59;5033031;28;20057;-84
2021/04/18 08:02:05;;;;;;;8.98;6.25;;;;;;;11.67;50.39;100393.34;5015301;28;20050;-84
2021/04/18 08:04:32;;;;;;;9.98;6.10;;;;;;;11.69;50.25;100395.91;5012349;28;593633;-84
2021/04/18 08:07:02;;;;;;;14.73;7.05;;;;;;;11.70;50.50;100389.72;5033788;28;20132;-84
2021/04/18 08:09:28;;;;;;;11.43;6.78;;;;;;;11.73;50.49;100389.56;5033766;28;20073;-84
2021/04/18 08:12:22;;;;;;;10.88;7.28;;;;;;;11.73;50.76;100384.28;5034088;28;20080;-84
2021/04/18 08:15:09;;;;;;;14.68;7.00;;;;;;;11.82;50.87;100389.06;5030514;28;20103;-84
2021/04/18 08:18:08;;;;;;;12.82;6.75;;;;;;;11.88;50.99;100389.72;5033631;28;20555;-84
2021/04/18 08:20:38;;;;;;;14.05;7.78;;;;;;;11.98;50.82;100393.56;5034809;28;20054;-84
2021/04/18 08:23:16;;;;;;;13.65;7.18;;;;;;;12.04;50.94;100398.50;5034078;28;20100;-85
2021/04/18 08:26:04;;;;;;;15.13;7.07;;;;;;;12.11;50.80;100393.78;5033403;28;20061;-84
2021/04/18 08:28:32;;;;;;;11.88;6.95;;;;;;;12.24;50.72;100391.34;5033854;28;20045;-84
2021/04/18 08:31:03;;;;;;;11.48;7.28;;;;;;;12.31;50.94;100384.81;5016132;28;20061;-84
2021/04/18 08:33:40;;;;;;;14.32;7.53;;;;;;;12.39;50.78;100381.75;5016814;28;20103;-84
2021/04/18 08:36:25;;;;;;;13.38;7.50;;;;;;;12.50;50.83;100386.44;5033860;28;20053;-84
2021/04/18 08:39:00;;;;;;;11.98;7.05;;;;;;;12.61;50.80;100386.72;5034299;28;20059;-84
2021/04/18 08:41:47;;;;;;;18.33;7.65;;;;;;;12.72;50.68;100395.81;5033464;28;20049;-84
2021/04/18 08:44:24;;;;;;;14.05;7.53;;;;;;;12.83;50.35;100390.78;5033336;28;20449;-84
2021/04/18 08:47:11;;;;;;;14.85;7.10;;;;;;;12.92;50.36;100392.03;5033422;28;20062;-84
2021/04/18 08:49:43;;;;;;;13.05;7.32;;;;;;;13.03;50.22;100394.94;5033291;28;20057;-84
2021/04/18 08:52:13;;;;;;;15.93;7.20;;;;;;;13.10;50.24;100391.94;5033449;28;20049;-84
2021/04/18 08:54:42;;;;;;;12.50;7.20;;;;;;;13.18;50.11;100396.78;5032906;28;20057;-84
2021/04/18 08:57:16;;;;;;;12.02;7.07;;;;;;;13.22;50.15;100388.59;5015909;28;20049;-84
2021/04/18 08:59:47;;;;;;;11.15;6.72;;;;;;;13.27;49.92;100393.63;5015895;28;20056;-84
2021/04/18 09:02:14;;;;;;;12.05;6.57;;;;;;;13.33;49.85;100390.59;5033223;28;20544;-84
2021/04/18 09:04:46;;;;;;;10.25;7.10;;;;;;;13.36;50.22;100381.63;5032706;28;20394;-84
2021/04/18 09:07:15;;;;;;;14.30;7.07;;;;;;;13.45;50.34;100383.72;5033317;28;20049;-84
2021/04/18 09:09:41;;;;;;;12.10;7.45;;;;;;;13.55;50.53;100379.66;5036336;28;20045;-84
2021/04/18 09:12:09;;;;;;;11.75;6.88;;;;;;;13.67;50.61;100383.34;5019560;28;20053;-84
2021/04/18 09:14:37;;;;;;;12.82;7.13;;;;;;;13.81;50.29;100387.81;5019094;28;20046;-84
2021/04/18 09:17:26;;;;;;;13.05;7.45;;;;;;;13.90;49.80;100383.75;5019344;28;20052;-83
2021/04/18 09:20:04;;;;;;;10.13;7.20;;;;;;;14.02;49.73;100383.94;5036976;28;20449;-84
2021/04/18 09:22:32;;;;;;;12.05;6.97;;;;;;;14.12;49.53;100387.72;5036781;28;20516;-84
2021/04/18 09:25:08;;;;;;;11.25;6.85;;;;;;;14.19;49.44;100383.75;5036562;28;20057;-84
2021/04/18 09:27:42;;;;;;;11.57;6.60;;;;;;;14.24;49.55;100377.31;5036520;28;20056;-84
2021/04/18 09:30:22;;;;;;;11.80;6.95;;;;;;;14.32;49.12;100385.63;5036673;28;20080;-84
2021/04/18 09:32:50;;;;;;;10.75;6.88;;;;;;;14.41;49.14;100384.19;5036579;28;20111;-84
2021/04/18 09:35:23;;;;;;;13.00;7.55;;;;;;;14.46;49.13;100398.84;5036569;28;20049;-84
2021/04/18 09:37:56;;;;;;;12.63;8.00;;;;;;;14.52;49.25;100397.63;5036621;28;20053;-84
2021/04/18 09:40:25;;;;;;;12.85;7.18;;;;;;;14.59;49.18;100393.59;5036467;28;20295;-84
2021/04/18 09:42:52;;;;;;;11.60;7.47;;;;;;;14.65;49.23;100388.88;5036530;28;20053;-84
2021/04/18 09:45:22;;;;;;;12.23;6.68;;;;;;;14.69;48.85;100385.94;5036452;28;20046;-84
2021/04/18 09:47:53;;;;;;;14.27;7.43;;;;;;;14.75;49.05;100382.03;5036819;28;20050;-84
2021/04/18 09:50:32;;;;;;;16.90;7.28;;;;;;;14.79;48.71;100382.72;5036429;28;20061;-84
2021/04/18 09:53:22;;;;;;;11.05;7.40;;;;;;;14.81;48.48;100389.59;5036576;28;20053;-84
2021/04/18 09:56:08;;;;;;;12.38;6.78;;;;;;;14.87;48.60;100383.06;5018321;28;20048;-84
2021/04/18 09:58:36;;;;;;;9.57;6.82;;;;;;;14.93;48.73;100387.13;5036894;28;20049;-84
2021/04/18 10:01:04;;;;;;;14.10;6.93;;;;;;;14.98;48.70;100387.66;5036542;28;20053;-84
2021/04/18 10:03:44;;;;;;;14.85;6.95;;;;;;;15.00;48.80;100392.88;5036086;28;20060;-84
2021/04/18 10:06:11;;;;;;;12.45;6.65;;;;;;;15.09;48.81;100379.00;5036426;28;20057;-84
2021/04/18 10:08:39;;;;;;;11.40;6.30;;;;;;;15.15;48.92;100383.06;5036276;28;20049;-84
2021/04/18 10:11:05;;;;;;;15.40;7.25;;;;;;;15.24;49.22;100380.66;5035969;28;20053;-84
2021/04/18 10:13:55;;;;;;;16.00;7.57;;;;;;;15.32;48.92;100374.81;5036387;28;20132;-84
2021/04/18 10:16:38;;;;;;;10.30;6.53;;;;;;;15.53;49.51;100373.47;5036137;28;20132;-84
2021/04/18 10:19:18;;;;;;;13.07;7.05;;;;;;;15.75;49.61;100379.00;5036042;28;20128;-84
2021/04/18 10:22:08;;;;;;;12.82;6.50;;;;;;;16.01;48.84;100364.91;5035881;28;20049;-84
2021/04/18 10:24:41;;;;;;;10.07;6.53;;;;;;;16.31;49.01;100370.81;5035695;28;20132;-84
2021/04/18 10:27:08;;;;;;;11.25;7.32;;;;;;;16.57;48.81;100370.75;5036001;28;20069;-84
2021/04/18 10:29:36;;;;;;;14.23;6.55;;;;;;;16.77;48.28;100359.50;5018791;28;20410;-84
2021/04/18 10:32:03;;;;;;;15.00;7.40;;;;;;;16.96;47.86;100355.47;5035996;28;20056;-84
2021/04/18 10:34:29;;;;;;;13.57;6.32;;;;;;;17.13;47.72;100361.38;5035839;28;20088;-84
2021/04/18 10:36:55;;;;;;;12.65;6.68;;;;;;;17.27;47.35;100363.84;5036315;28;20096;-84
2021/04/18 10:39:22;;;;;;;14.70;6.28;;;;;;;17.39;46.66;100362.06;5018625;28;20049;-83
2021/04/18 10:41:50;;;;;;;11.98;6.30;;;;;;;17.51;46.54;100356.75;5036296;28;20049;-84
2021/04/18 10:44:16;;;;;;;11.30;6.35;;;;;;;17.63;46.28;100357.63;5035735;28;20045;-84
2021/04/18 10:46:49;;;;;;;9.02;5.72;;;;;;;17.71;44.92;100360.53;5035540;28;20049;-84
2021/04/18 10:49:16;;;;;;;12.13;6.25;;;;;;;17.82;45.56;100362.38;5017902;28;20056;-84
2021/04/18 10:51:42;;;;;;;10.52;6.38;;;;;;;17.93;45.93;100362.38;5017746;28;20054;-84
2021/04/18 10:54:09;;;;;;;8.43;5.78;;;;;;;18.05;45.77;100360.56;5035306;28;20479;-84
2021/04/18 10:56:36;;;;;;;7.18;5.68;;;;;;;18.18;45.23;100356.97;5035476;28;20123;-84
2021/04/18 10:59:03;;;;;;;10.23;5.93;;;;;;;18.28;44.78;100349.91;5017897;28;20053;-84
2021/04/18 11:01:29;;;;;;;11.90;6.03;;;;;;;18.36;44.36;100344.00;5035313;28;20069;-84
2021/04/18 11:03:55;;;;;;;10.60;5.68;;;;;;;18.42;43.96;100339.94;5035109;28;20104;-84
2021/04/18 11:06:23;;;;;;;8.40;5.50;;;;;;;18.46;43.34;100342.25;5035505;28;20053;-84
2021/04/18 11:08:49;;;;;;;8.73;5.65;;;;;;;18.45;43.27;100335.25;5035222;28;20107;-84
2021/04/18 11:11:15;;;;;;;10.30;5.30;;;;;;;18.42;43.13;100339.94;5035120;28;20049;-84
2021/04/18 11:13:41;;;;;;;7.07;5.18;;;;;;;18.39;43.53;100338.38;5034719;28;20061;-84
2021/04/18 11:16:08;;;;;;;7.55;5.47;;;;;;;18.41;43.55;100333.78;5034715;28;20057;-84
2021/04/18 11:18:34;;;;;;;6.32;4.65;;;;;;;18.52;43.49;100329.41;5035069;28;20049;-84
2021/04/18 11:21:01;;;;;;;8.23;5.05;;;;;;;18.67;43.54;100324.63;5034660;28;20068;-84
2021/04/18 11:23:28;;;;;;;5.88;4.47;;;;;;;18.85;43.19;100323.13;5034956;28;20061;-84
2021/04/18 11:25:54;;;;;;;8.77;4.63;;;;;;;19.03;42.28;100319.88;5017038;28;20490;-84
2021/04/18 11:28:20;;;;;;;8.63;5.03;;;;;;;19.16;41.74;100325.06;5035283;28;20064;-84
2021/04/18 11:30:46;;;;;;;7.07;4.95;;;;;;;19.23;41.82;100318.22;5016517;28;20056;-84